TimeEDT,TemperatureF,Dew PointF,Humidity,Sea Level PressureIn,VisibilityMPH,Wind Direction,Wind SpeedMPH,Gust SpeedMPH,PrecipitationIn,Events,Conditions,WindDirDegrees,DateUTC
12:58 AM,55.9,48.0,75,30.17,10.0,Calm,Calm,-,N/A,,Clear,0,2014-05-18 04:58:00
1:58 AM,55.0,48.0,77,30.17,5.0,Calm,Calm,-,N/A,,Haze,0,2014-05-18 05:58:00
2:58 AM,55.0,50.0,83,30.16,7.0,Calm,Calm,-,N/A,,Scattered Clouds,0,2014-05-18 06:58:00
3:58 AM,54.0,50.0,86,30.17,6.0,Calm,Calm,-,N/A,,Clear,0,2014-05-18 07:58:00
4:58 AM,55.0,48.9,80,30.17,5.0,Calm,Calm,-,N/A,,Haze,0,2014-05-18 08:58:00
5:58 AM,54.0,48.0,80,30.18,6.0,Calm,Calm,-,N/A,,Haze,0,2014-05-18 09:58:00
6:58 AM,55.9,51.1,84,30.18,5.0,Calm,Calm,-,N/A,,Haze,0,2014-05-18 10:58:00
7:29 AM,62.1,54.0,75,30.18,2.0,Calm,Calm,-,N/A,,Haze,0,2014-05-18 11:29:00
7:58 AM,66.0,50.0,56,30.19,10.0,ENE,3.5,-,N/A,,Clear,70,2014-05-18 11:58:00
8:58 AM,70.0,46.9,44,30.19,10.0,Calm,Calm,-,N/A,,Clear,0,2014-05-18 12:58:00
9:58 AM,72.0,46.9,41,30.19,10.0,Variable,4.6,-,N/A,,Clear,0,2014-05-18 13:58:00
10:58 AM,72.0,48.9,44,30.19,10.0,SSW,6.9,-,N/A,,Clear,210,2014-05-18 14:58:00
11:58 AM,72.0,51.1,48,30.19,10.0,South,8.1,-,N/A,,Partly Cloudy,170,2014-05-18 15:58:00
12:58 PM,72.0,53.1,51,30.18,10.0,SSW,5.8,-,N/A,,Mostly Cloudy,200,2014-05-18 16:58:00
1:58 PM,72.0,54.0,53,30.16,10.0,South,11.5,-,N/A,,Mostly Cloudy,180,2014-05-18 17:58:00
2:58 PM,71.1,57.9,63,30.14,10.0,South,10.4,-,N/A,,Overcast,170,2014-05-18 18:58:00
3:58 PM,71.1,55.0,57,30.13,10.0,SW,12.7,-,N/A,,Overcast,220,2014-05-18 19:58:00
4:58 PM,71.1,54.0,55,30.13,10.0,WSW,11.5,-,N/A,,Overcast,240,2014-05-18 20:58:00
5:58 PM,66.9,55.9,68,30.13,10.0,ENE,6.9,-,N/A,,Overcast,60,2014-05-18 21:58:00
6:58 PM,66.9,57.9,73,30.12,10.0,Calm,Calm,-,N/A,,Overcast,0,2014-05-18 22:58:00
7:58 PM,64.0,57.0,78,30.15,10.0,NE,6.9,-,N/A,,Overcast,40,2014-05-18 23:58:00
8:58 PM,63.0,57.0,81,30.15,10.0,NNE,3.5,-,N/A,,Mostly Cloudy,20,2014-05-19 00:58:00
9:58 PM,62.1,57.0,84,30.17,10.0,NNE,4.6,-,N/A,,Mostly Cloudy,30,2014-05-19 01:58:00
10:58 PM,61.0,55.9,83,30.18,10.0,North,4.6,-,N/A,,Overcast,10,2014-05-19 02:58:00
11:58 PM,61.0,55.9,83,30.18,10.0,North,6.9,-,N/A,,Clear,360,2014-05-19 03:58:00